createdAt,value
2023-03-17T00:02:08.403Z,99.90
2023-03-17T00:07:16.615Z,99.90
2023-03-17T00:12:21.911Z,99.90
2023-03-17T00:17:27.776Z,99.90
2023-03-17T00:22:33.003Z,99.90
2023-03-17T00:27:38.867Z,99.90
2023-03-17T00:32:46.552Z,99.90
2023-03-17T00:37:54.454Z,99.90
2023-03-17T00:43:00.853Z,99.90
2023-03-17T00:48:09.309Z,99.90
2023-03-17T00:53:16.984Z,99.90
2023-03-17T00:58:35.697Z,99.90
2023-03-17T01:03:41.664Z,99.90
2023-03-17T01:08:47.828Z,99.90
2023-03-17T01:13:53.961Z,99.90
2023-03-17T01:18:59.586Z,99.90
2023-03-17T01:24:05.449Z,99.90
2023-03-17T01:29:11.457Z,99.90
2023-03-17T01:34:16.700Z,99.90
2023-03-17T01:39:21.946Z,99.90
2023-03-17T01:44:27.616Z,99.90
2023-03-17T01:49:35.722Z,99.90
2023-03-17T01:54:53.078Z,99.90
2023-03-17T02:00:07.111Z,99.90
2023-03-17T02:05:15.800Z,99.90
2023-03-17T02:10:24.983Z,99.90
2023-03-17T02:15:41.396Z,99.90
2023-03-17T02:20:52.365Z,99.90
2023-03-17T02:25:57.653Z,99.90
2023-03-17T02:31:05.073Z,99.90
2023-03-17T02:36:11.434Z,99.90
2023-03-17T02:41:17.115Z,99.90
2023-03-17T02:46:22.911Z,99.90
2023-03-17T02:51:28.625Z,99.90
2023-03-17T02:56:33.928Z,99.90
2023-03-17T03:01:39.965Z,99.90
2023-03-17T03:06:45.930Z,99.90
2023-03-17T03:11:52.725Z,99.90
2023-03-17T03:16:58.931Z,99.90
2023-03-17T03:22:04.244Z,99.90
2023-03-17T03:27:09.665Z,99.90
2023-03-17T03:32:15.255Z,99.90
2023-03-17T03:37:20.713Z,99.90
2023-03-17T03:42:26.320Z,99.90
2023-03-17T03:47:31.546Z,99.90
2023-03-17T03:52:37.001Z,99.90
2023-03-17T03:57:42.304Z,99.90
2023-03-17T04:02:48.682Z,99.90
2023-03-17T04:07:53.892Z,99.90
2023-03-17T04:12:59.179Z,99.90
2023-03-17T04:18:05.729Z,99.90
2023-03-17T04:23:10.864Z,99.90
2023-03-17T04:28:16.153Z,99.90
2023-03-17T04:33:21.685Z,99.90
2023-03-17T04:38:28.400Z,99.90
2023-03-17T04:43:34.162Z,99.90
2023-03-17T04:48:39.436Z,99.90
2023-03-17T04:53:45.187Z,99.90
2023-03-17T04:58:50.568Z,99.90
2023-03-17T05:03:56.434Z,99.90
2023-03-17T05:09:01.731Z,99.90
2023-03-17T05:14:06.867Z,99.90
2023-03-17T05:19:12.086Z,99.90
2023-03-17T05:24:17.473Z,99.90
2023-03-17T05:29:23.234Z,99.90
2023-03-17T05:34:28.484Z,99.90
2023-03-17T05:39:33.789Z,99.90
2023-03-17T05:44:39.842Z,99.90
2023-03-17T05:49:45.387Z,99.90
2023-03-17T05:54:52.679Z,99.90
2023-03-17T05:59:59.685Z,99.90
2023-03-17T06:05:05.524Z,99.90
2023-03-17T06:10:12.142Z,99.90
2023-03-17T06:15:17.548Z,99.90
2023-03-17T06:20:22.838Z,99.90
2023-03-17T06:25:28.266Z,99.90
2023-03-17T06:30:37.059Z,99.90
2023-03-17T06:35:43.881Z,99.90
2023-03-17T06:40:49.166Z,99.90
2023-03-17T06:45:54.801Z,99.90
2023-03-17T06:50:59.937Z,99.90
2023-03-17T06:56:05.835Z,99.90
2023-03-17T07:01:12.210Z,99.90
2023-03-17T07:06:17.425Z,99.90
2023-03-17T07:11:23.836Z,99.90
2023-03-17T07:16:29.008Z,99.90
2023-03-17T07:21:34.275Z,99.90
2023-03-17T07:26:40.429Z,99.90
2023-03-17T07:31:46.329Z,99.90
2023-03-17T07:36:52.021Z,99.90
2023-03-17T07:41:57.230Z,99.90
2023-03-17T07:47:02.815Z,99.90
2023-03-17T07:52:08.934Z,99.90
2023-03-17T07:57:16.368Z,99.90
2023-03-17T08:02:23.420Z,99.90
2023-03-17T08:07:28.703Z,99.90
2023-03-17T08:12:34.310Z,99.90
2023-03-17T08:17:40.345Z,99.90
2023-03-17T08:22:45.674Z,99.90
2023-03-17T08:27:51.255Z,99.90
2023-03-17T08:32:56.585Z,99.90
2023-03-17T08:38:02.450Z,99.90
2023-03-17T08:43:08.729Z,99.90
2023-03-17T08:48:14.257Z,99.90
2023-03-17T08:53:19.458Z,99.90
2023-03-17T08:58:27.260Z,99.90
2023-03-17T09:03:34.086Z,96.60
2023-03-17T09:08:43.187Z,94.30
2023-03-17T09:13:49.634Z,93.60
2023-03-17T09:18:55.817Z,92.10
2023-03-17T09:24:02.667Z,87.80
2023-03-17T09:29:09.290Z,82.40
2023-03-17T09:34:14.594Z,78.10
2023-03-17T09:39:21.622Z,80.80
2023-03-17T09:45:00.175Z,76.20
2023-03-17T09:50:11.307Z,76.40
2023-03-17T09:55:25.537Z,75.90
2023-03-17T10:00:31.517Z,74.60
2023-03-17T10:05:38.860Z,75.90
2023-03-17T10:10:50.152Z,71.40
2023-03-17T10:16:01.728Z,71.10
2023-03-17T10:21:09.713Z,72.20
2023-03-17T10:26:29.999Z,68.60
2023-03-17T10:31:39.529Z,71.90
2023-03-17T10:36:47.937Z,70.00
2023-03-17T10:42:01.913Z,69.00
2023-03-17T10:47:08.575Z,67.00
2023-03-17T10:52:30.399Z,66.80
2023-03-17T10:57:39.125Z,67.50
2023-03-17T11:02:54.623Z,66.20
2023-03-17T11:08:08.568Z,64.60
2023-03-17T11:13:19.881Z,64.50
2023-03-17T11:18:28.470Z,63.30
2023-03-17T11:23:52.997Z,66.50
2023-03-17T11:29:34.411Z,64.60
2023-03-17T11:34:59.190Z,68.70
2023-03-17T11:40:10.515Z,67.80
2023-03-17T11:45:24.517Z,64.70
2023-03-17T11:50:36.180Z,67.00
2023-03-17T11:55:49.030Z,67.90
2023-03-17T12:00:57.609Z,64.20
2023-03-17T12:06:10.413Z,61.90
2023-03-17T12:11:18.565Z,62.10
2023-03-17T12:16:44.811Z,62.80
2023-03-17T12:22:04.161Z,64.80
2023-03-17T12:27:33.262Z,63.70
2023-03-17T12:32:58.704Z,61.60
2023-03-17T12:38:19.223Z,59.40
2023-03-17T12:43:39.399Z,58.40
2023-03-17T12:48:53.977Z,56.90
2023-03-17T12:54:00.363Z,55.00
2023-03-17T12:59:09.670Z,58.50
2023-03-17T13:04:17.880Z,55.20
2023-03-17T13:09:40.266Z,55.00
2023-03-17T13:14:50.862Z,55.50
2023-03-17T13:20:10.822Z,55.20
2023-03-17T13:25:35.460Z,53.20
2023-03-17T13:30:43.666Z,55.00
2023-03-17T13:35:57.911Z,52.80
2023-03-17T13:41:40.309Z,55.10
2023-03-17T13:46:48.560Z,52.60
2023-03-17T13:52:17.660Z,50.50
2023-03-17T13:57:28.867Z,50.90
2023-03-17T14:02:36.786Z,52.80
2023-03-17T14:07:59.586Z,52.10
2023-03-17T14:13:16.899Z,52.50
2023-03-17T14:18:34.135Z,52.90
2023-03-17T14:23:39.416Z,53.30
2023-03-17T14:28:44.604Z,53.20
2023-03-17T14:33:51.871Z,55.00
2023-03-17T14:38:58.166Z,55.60
2023-03-17T14:44:03.556Z,57.30
2023-03-17T14:49:14.559Z,56.50
2023-03-17T14:54:23.157Z,56.30
2023-03-17T14:59:32.224Z,56.00
2023-03-17T15:04:38.972Z,54.80
2023-03-17T15:09:44.080Z,56.00
2023-03-17T15:14:52.796Z,56.10
2023-03-17T15:20:00.782Z,57.40
2023-03-17T15:25:17.941Z,54.90
2023-03-17T15:30:23.692Z,56.70
2023-03-17T15:35:30.934Z,56.20
2023-03-17T15:40:36.405Z,56.60
2023-03-17T15:45:43.261Z,56.30
2023-03-17T15:51:05.807Z,56.80
2023-03-17T15:56:19.361Z,57.80
2023-03-17T16:01:30.680Z,57.50
2023-03-17T16:06:36.647Z,57.80
2023-03-17T16:11:42.035Z,57.90
2023-03-17T16:16:47.589Z,58.80
2023-03-17T16:21:55.388Z,58.90
2023-03-17T16:27:00.800Z,59.60
2023-03-17T16:32:06.509Z,60.20
2023-03-17T16:37:18.280Z,60.50
2023-03-17T16:42:25.218Z,61.80
2023-03-17T16:47:30.494Z,62.50
2023-03-17T16:52:35.767Z,63.80
2023-03-17T16:57:43.746Z,65.20
2023-03-17T17:02:49.930Z,67.10
2023-03-17T17:07:59.919Z,68.30
2023-03-17T17:13:07.856Z,69.00
2023-03-17T17:18:16.337Z,69.10
2023-03-17T17:23:23.984Z,69.50
2023-03-17T17:28:29.128Z,69.50
2023-03-17T17:33:34.568Z,70.20
2023-03-17T17:38:39.862Z,70.00
2023-03-17T17:43:46.344Z,70.30
2023-03-17T17:48:51.743Z,71.30
2023-03-17T17:53:56.911Z,71.50
2023-03-17T17:59:02.115Z,72.00
2023-03-17T18:04:09.962Z,72.30
2023-03-17T18:09:17.745Z,71.70
2023-03-17T18:14:23.005Z,71.80
2023-03-17T18:19:28.794Z,72.00
2023-03-17T18:24:34.259Z,71.20
2023-03-17T18:29:39.804Z,71.00
2023-03-17T18:34:48.875Z,70.50
2023-03-17T18:40:11.987Z,70.80
2023-03-17T18:45:01.410Z,70.40
2023-03-17T18:50:08.224Z,70.20
2023-03-17T18:55:15.340Z,70.70
2023-03-17T19:00:20.983Z,69.90
2023-03-17T19:05:28.094Z,69.90
2023-03-17T19:10:34.073Z,70.70
2023-03-17T19:15:40.684Z,70.40
2023-03-17T19:20:46.313Z,70.40
2023-03-17T19:25:52.249Z,70.00
2023-03-17T19:30:57.451Z,70.50
2023-03-17T19:36:05.788Z,71.20
2023-03-17T19:41:11.263Z,71.00
2023-03-17T19:46:16.715Z,70.90
2023-03-17T19:51:21.924Z,70.80
2023-03-17T19:56:28.165Z,69.70
2023-03-17T20:01:33.569Z,69.70
2023-03-17T20:06:38.796Z,70.40
2023-03-17T20:11:43.958Z,70.10
2023-03-17T20:16:49.584Z,70.00
2023-03-17T20:21:55.420Z,70.50
2023-03-17T20:27:00.874Z,71.30
2023-03-17T20:32:06.134Z,70.70
2023-03-17T20:37:14.369Z,70.40
2023-03-17T20:42:20.709Z,70.50
2023-03-17T20:47:27.263Z,71.00
2023-03-17T20:52:32.762Z,71.30
2023-03-17T20:57:38.135Z,72.20
2023-03-17T21:02:43.552Z,72.90
2023-03-17T21:07:50.702Z,73.50
2023-03-17T21:12:55.966Z,73.90
2023-03-17T21:18:01.223Z,73.60
2023-03-17T21:23:08.431Z,73.70
2023-03-17T21:28:14.102Z,73.20
2023-03-17T21:33:19.369Z,73.30
2023-03-17T21:38:24.532Z,72.60
2023-03-17T21:43:30.476Z,73.00
2023-03-17T21:48:35.546Z,74.00
2023-03-17T21:53:40.905Z,73.50
2023-03-17T21:58:46.167Z,73.90
2023-03-17T22:03:52.270Z,74.00
2023-03-17T22:08:57.722Z,73.70
2023-03-17T22:14:03.093Z,73.90
2023-03-17T22:19:10.110Z,73.80
2023-03-17T22:24:15.776Z,74.30
2023-03-17T22:29:20.914Z,74.50
2023-03-17T22:34:26.303Z,74.60
2023-03-17T22:39:31.703Z,75.50
2023-03-17T22:44:36.839Z,75.80
2023-03-17T22:49:41.942Z,76.80
2023-03-17T22:54:47.272Z,76.60
2023-03-17T22:59:52.477Z,76.80
2023-03-17T23:04:57.938Z,77.40
2023-03-17T23:10:05.730Z,77.90
2023-03-17T23:15:11.573Z,77.70
2023-03-17T23:20:16.857Z,78.10
2023-03-17T23:25:22.328Z,78.10
2023-03-17T23:30:27.623Z,78.40
2023-03-17T23:35:33.581Z,79.10
2023-03-17T23:40:41.448Z,79.50
2023-03-17T23:45:46.669Z,79.60
2023-03-17T23:50:55.654Z,79.60
2023-03-17T23:56:01.001Z,79.50
